Terminal Aerodrome Forecast
Issued by NWS Albany, NY

Home | Current Version | Previous Version | Text Only | Print | Product List | Glossary On
Versions: 1 2 3 4 5 6 7 8 9 10 11 12 13 14 15 16 17 18 19 20
000
FTUS41 KALY 031815 AAB
TAFALB
TAF AMD
KALB 031815Z 0318/0418 VRB05G25KT P6SM VCTS BKN060CB OVC150
     FM032000 20014G22KT P6SM SCT025 BKN050
      TEMPO 0323/0401 VRB25KT 3SM TSRA OVC025CB
     FM040200 18007KT 5SM BR BKN050 BKN100=

USA.gov is the U.S. government's official web portal to all federal, state and local government web resources and services.